createdAt,value
2023-02-11T00:01:26.456Z,2.47
2023-02-11T00:03:55.514Z,2.00
2023-02-11T00:06:24.372Z,1.95
2023-02-11T00:08:53.517Z,2.50
2023-02-11T00:11:25.367Z,2.90
2023-02-11T00:13:53.538Z,2.53
2023-02-11T00:16:22.380Z,2.35
2023-02-11T00:18:52.924Z,2.05
2023-02-11T00:21:24.209Z,2.28
2023-02-11T00:23:54.869Z,3.63
2023-02-11T00:26:25.153Z,2.40
2023-02-11T00:28:53.905Z,2.42
2023-02-11T00:31:24.107Z,2.47
2023-02-11T00:33:52.710Z,2.47
2023-02-11T00:36:25.489Z,2.25
2023-02-11T00:38:57.254Z,1.70
2023-02-11T00:41:25.927Z,1.83
2023-02-11T00:43:54.053Z,2.80
2023-02-11T00:46:22.292Z,2.40
2023-02-11T00:48:52.127Z,2.38
2023-02-11T00:51:19.967Z,2.15
2023-02-11T00:53:47.685Z,3.17
2023-02-11T00:56:17.070Z,2.03
2023-02-11T00:58:44.968Z,2.17
2023-02-11T01:01:13.151Z,2.05
2023-02-11T01:03:41.799Z,2.20
2023-02-11T01:06:10.922Z,2.80
2023-02-11T01:08:39.464Z,2.67
2023-02-11T01:11:12.759Z,1.50
2023-02-11T01:13:42.549Z,1.70
2023-02-11T01:16:12.530Z,2.20
2023-02-11T01:18:41.796Z,2.35
2023-02-11T01:21:09.601Z,2.38
2023-02-11T01:23:37.424Z,2.15
2023-02-11T01:26:05.594Z,2.00
2023-02-11T01:28:34.389Z,2.13
2023-02-11T01:31:04.614Z,2.03
2023-02-11T01:33:32.519Z,2.15
2023-02-11T01:36:03.709Z,2.92
2023-02-11T01:38:31.896Z,2.38
2023-02-11T01:41:04.541Z,2.30
2023-02-11T01:43:37.184Z,2.63
2023-02-11T01:46:29.209Z,1.88
2023-02-11T01:49:03.601Z,1.23
2023-02-11T01:51:38.782Z,1.50
2023-02-11T01:54:27.786Z,2.42
2023-02-11T01:57:18.764Z,1.95
2023-02-11T01:59:53.301Z,1.52
2023-02-11T02:05:07.747Z,2.15
2023-02-11T02:07:43.471Z,1.20
2023-02-11T02:10:20.029Z,1.52
2023-02-11T02:12:47.965Z,1.50
2023-02-11T02:15:30.352Z,1.77
2023-02-11T02:18:29.156Z,2.00
2023-02-11T02:21:44.419Z,1.88
2023-02-11T02:24:51.081Z,1.73
2023-02-11T02:27:42.508Z,1.50
2023-02-11T02:30:51.667Z,2.38
2023-02-11T02:33:31.568Z,2.13
2023-02-11T02:36:14.092Z,2.35
2023-02-11T02:38:50.758Z,2.03
2023-02-11T02:41:23.270Z,2.30
2023-02-11T02:43:52.584Z,2.55
2023-02-11T02:46:23.774Z,1.75
2023-02-11T02:48:54.576Z,2.40
2023-02-11T02:52:07.969Z,2.45
2023-02-11T02:55:18.302Z,2.40
2023-02-11T02:58:19.905Z,2.20
2023-02-11T03:01:04.566Z,2.05
2023-02-11T03:03:44.512Z,1.40
2023-02-11T03:06:23.080Z,1.33
2023-02-11T03:09:00.942Z,1.42
2023-02-11T03:11:30.122Z,1.50
2023-02-11T03:14:02.302Z,1.98
2023-02-11T03:16:35.898Z,0.98
2023-02-11T03:19:11.511Z,1.80
2023-02-11T03:21:44.286Z,1.85
2023-02-11T03:24:21.498Z,2.20
2023-02-11T03:26:52.978Z,2.63
2023-02-11T03:29:37.393Z,2.13
2023-02-11T03:32:16.498Z,1.23
2023-02-11T03:34:50.806Z,1.35
2023-02-11T03:37:26.230Z,2.03
2023-02-11T03:40:02.032Z,1.98
2023-02-11T03:42:37.790Z,1.52
2023-02-11T03:45:10.271Z,2.10
2023-02-11T03:47:42.732Z,2.58
2023-02-11T03:50:16.270Z,1.92
2023-02-11T03:52:47.883Z,1.38
2023-02-11T03:55:20.553Z,1.58
2023-02-11T03:57:48.864Z,1.30
2023-02-11T04:00:17.213Z,2.20
2023-02-11T04:02:45.574Z,1.80
2023-02-11T04:05:17.093Z,1.42
2023-02-11T04:07:46.178Z,1.83
2023-02-11T04:10:14.227Z,2.25
2023-02-11T04:12:41.941Z,1.75
2023-02-11T04:15:10.766Z,1.98
2023-02-11T04:17:39.068Z,2.00
2023-02-11T04:20:11.435Z,2.72
2023-02-11T04:22:39.376Z,2.15
2023-02-11T04:25:10.553Z,2.17
2023-02-11T04:27:39.128Z,2.40
2023-02-11T04:30:10.960Z,2.92
2023-02-11T04:32:38.852Z,1.38
2023-02-11T04:35:07.700Z,1.95
2023-02-11T04:37:35.669Z,2.88
2023-02-11T04:40:03.613Z,2.35
2023-02-11T04:42:32.878Z,2.75
2023-02-11T04:45:00.588Z,2.08
2023-02-11T04:47:28.414Z,2.88
2023-02-11T04:49:56.137Z,1.92
2023-02-11T04:52:23.883Z,2.63
2023-02-11T04:54:51.696Z,2.55
2023-02-11T04:57:19.466Z,2.35
2023-02-11T04:59:48.831Z,2.63
2023-02-11T05:02:16.616Z,1.65
2023-02-11T05:04:44.338Z,2.22
2023-02-11T05:07:12.149Z,1.88
2023-02-11T05:09:40.078Z,2.08
2023-02-11T05:12:08.405Z,2.38
2023-02-11T05:14:36.169Z,2.20
2023-02-11T05:17:05.252Z,2.05
2023-02-11T05:19:33.267Z,1.58
2023-02-11T05:22:03.662Z,2.97
2023-02-11T05:24:33.451Z,2.67
2023-02-11T05:27:02.233Z,1.92
2023-02-11T05:29:30.042Z,2.13
2023-02-11T05:31:59.549Z,2.55
2023-02-11T05:34:29.209Z,1.75
2023-02-11T05:36:57.193Z,3.13
2023-02-11T05:39:24.974Z,2.60
2023-02-11T05:41:52.742Z,1.88
2023-02-11T05:44:20.792Z,2.42
2023-02-11T05:46:49.066Z,1.88
2023-02-11T05:49:18.119Z,2.83
2023-02-11T05:51:47.275Z,1.35
2023-02-11T05:54:15.304Z,2.58
2023-02-11T05:56:44.908Z,1.50
2023-02-11T05:59:15.442Z,1.63
2023-02-11T06:01:43.316Z,1.42
2023-02-11T06:04:11.115Z,1.25
2023-02-11T06:06:39.130Z,1.65
2023-02-11T06:09:08.239Z,1.23
2023-02-11T06:11:35.958Z,1.45
2023-02-11T06:14:03.778Z,1.10
2023-02-11T06:16:31.532Z,1.30
2023-02-11T06:18:59.445Z,1.73
2023-02-11T06:21:42.456Z,1.33
2023-02-11T06:24:13.329Z,1.40
2023-02-11T06:26:41.450Z,1.00
2023-02-11T06:29:09.429Z,1.38
2023-02-11T06:31:38.831Z,1.85
2023-02-11T06:34:07.086Z,1.85
2023-02-11T06:36:34.945Z,1.15
2023-02-11T06:39:02.739Z,1.27
2023-02-11T06:41:32.250Z,1.35
2023-02-11T06:44:00.557Z,1.52
2023-02-11T06:46:28.700Z,2.08
2023-02-11T06:48:56.596Z,2.03
2023-02-11T06:51:24.674Z,2.30
2023-02-11T06:53:52.419Z,2.58
2023-02-11T06:56:23.518Z,1.92
2023-02-11T06:58:55.944Z,1.75
2023-02-11T07:01:25.600Z,1.20
2023-02-11T07:03:55.262Z,1.92
2023-02-11T07:06:27.653Z,1.10
2023-02-11T07:08:56.742Z,2.22
2023-02-11T07:11:27.362Z,1.75
2023-02-11T07:14:02.220Z,1.88
2023-02-11T07:16:30.541Z,1.77
2023-02-11T07:18:58.728Z,2.55
2023-02-11T07:21:27.060Z,2.63
2023-02-11T07:23:55.052Z,1.83
2023-02-11T07:26:25.647Z,2.38
2023-02-11T07:28:54.284Z,2.58
2023-02-11T07:31:27.380Z,3.33
2023-02-11T07:33:59.063Z,1.85
2023-02-11T07:36:29.542Z,1.92
2023-02-11T07:38:57.489Z,2.85
2023-02-11T07:41:26.995Z,2.42
2023-02-11T07:43:55.117Z,2.78
2023-02-11T07:46:26.911Z,2.45
2023-02-11T07:48:55.863Z,2.53
2023-02-11T07:51:27.077Z,3.08
2023-02-11T07:53:56.146Z,2.80
2023-02-11T07:56:24.642Z,2.67
2023-02-11T07:58:52.812Z,4.28
2023-02-11T08:01:25.867Z,2.15
2023-02-11T08:03:54.215Z,3.30
2023-02-11T08:06:25.680Z,1.70
2023-02-11T08:08:53.928Z,2.70
2023-02-11T08:11:25.116Z,3.83
2023-02-11T08:13:53.582Z,1.95
2023-02-11T08:16:25.783Z,2.35
2023-02-11T08:18:57.178Z,2.53
2023-02-11T08:21:25.386Z,2.95
2023-02-11T08:23:53.284Z,2.35
2023-02-11T08:26:24.285Z,2.95
2023-02-11T08:28:54.700Z,2.70
2023-02-11T08:31:27.213Z,1.73
2023-02-11T08:33:57.968Z,2.22
2023-02-11T08:36:28.977Z,2.65
2023-02-11T08:39:12.109Z,2.30
2023-02-11T08:41:46.156Z,2.90
2023-02-11T08:44:14.242Z,3.05
2023-02-11T08:46:43.364Z,3.90
2023-02-11T08:49:11.438Z,3.70
2023-02-11T08:51:39.155Z,2.13
2023-02-11T08:54:09.459Z,3.15
2023-02-11T08:56:38.594Z,2.17
2023-02-11T08:59:07.472Z,2.13
2023-02-11T09:01:35.354Z,1.63
2023-02-11T09:04:04.650Z,2.35
2023-02-11T09:06:33.250Z,2.42
2023-02-11T09:09:01.621Z,2.20
2023-02-11T09:11:33.752Z,1.13
2023-02-11T09:14:02.306Z,2.55
2023-02-11T09:16:32.550Z,2.38
2023-02-11T09:19:02.661Z,2.20
2023-02-11T09:21:32.200Z,2.03
2023-02-11T09:24:00.010Z,2.25
2023-02-11T09:26:31.454Z,1.67
2023-02-11T09:29:00.337Z,2.15
2023-02-11T09:31:30.778Z,3.10
2023-02-11T09:34:01.792Z,2.58
2023-02-11T09:36:34.733Z,2.72
2023-02-11T09:39:04.741Z,2.03
2023-02-11T09:41:43.351Z,2.28
2023-02-11T09:44:21.520Z,1.90
2023-02-11T09:46:56.922Z,1.98
2023-02-11T09:49:35.370Z,1.88
2023-02-11T09:52:14.882Z,1.92
2023-02-11T09:54:55.549Z,1.73
2023-02-11T09:57:29.143Z,1.63
2023-02-11T09:59:57.947Z,1.98
2023-02-11T10:02:39.953Z,2.47
2023-02-11T10:05:45.347Z,2.70
2023-02-11T10:08:23.440Z,2.40
2023-02-11T10:10:58.832Z,3.83
2023-02-11T10:13:54.636Z,2.80
2023-02-11T10:16:46.711Z,2.85
2023-02-11T10:19:34.742Z,3.20
2023-02-11T10:22:13.171Z,3.67
2023-02-11T10:24:51.339Z,3.65
2023-02-11T10:27:28.460Z,3.47
2023-02-11T10:30:03.290Z,3.75
2023-02-11T10:32:44.018Z,3.15
2023-02-11T10:35:21.118Z,4.18
2023-02-11T10:37:50.022Z,3.97
2023-02-11T10:40:22.675Z,2.40
2023-02-11T10:42:55.663Z,3.25
2023-02-11T10:45:32.912Z,4.97
2023-02-11T10:48:02.007Z,3.45
2023-02-11T10:50:34.988Z,3.38
2023-02-11T10:53:24.316Z,3.45
2023-02-11T10:55:57.167Z,3.13
2023-02-11T10:58:29.811Z,2.47
2023-02-11T11:01:00.855Z,3.67
2023-02-11T11:03:36.799Z,3.58
2023-02-11T11:06:09.303Z,2.90
2023-02-11T11:08:44.726Z,3.67
2023-02-11T11:11:17.089Z,3.97
2023-02-11T11:13:59.041Z,3.10
2023-02-11T11:16:28.961Z,3.30
2023-02-11T11:19:23.195Z,3.13
2023-02-11T11:21:54.117Z,3.05
2023-02-11T11:24:27.934Z,3.13
2023-02-11T11:27:01.433Z,3.35
2023-02-11T11:29:35.571Z,3.42
2023-02-11T11:32:12.242Z,2.75
2023-02-11T11:34:44.946Z,3.83
2023-02-11T11:37:20.519Z,2.85
2023-02-11T11:39:58.432Z,2.83
2023-02-11T11:42:31.526Z,2.65
2023-02-11T11:45:02.825Z,2.85
2023-02-11T11:47:42.680Z,2.97
2023-02-11T11:50:27.419Z,2.78
2023-02-11T11:53:04.076Z,3.10
2023-02-11T11:55:41.557Z,2.72
2023-02-11T11:58:17.375Z,2.33
2023-02-11T12:00:58.331Z,2.70
2023-02-11T12:04:02.541Z,2.85
2023-02-11T12:06:42.538Z,2.55
2023-02-11T12:09:30.835Z,2.55
2023-02-11T12:12:21.323Z,3.17
2023-02-11T12:15:07.056Z,2.60
2023-02-11T12:18:01.888Z,2.58
2023-02-11T12:20:50.442Z,3.03
2023-02-11T12:23:39.523Z,3.05
2023-02-11T12:26:17.479Z,3.00
2023-02-11T12:29:07.002Z,2.58
2023-02-11T12:32:07.070Z,3.40
2023-02-11T12:35:15.967Z,2.75
2023-02-11T12:38:15.810Z,3.05
2023-02-11T12:40:52.659Z,3.30
2023-02-11T12:43:24.799Z,2.90
2023-02-11T12:46:20.890Z,3.53
2023-02-11T12:49:22.390Z,3.08
2023-02-11T12:52:09.564Z,2.22
2023-02-11T12:54:43.899Z,3.83
2023-02-11T12:57:20.808Z,3.47
2023-02-11T13:00:01.544Z,3.83
2023-02-11T13:02:43.264Z,4.22
2023-02-11T13:05:25.799Z,3.47
2023-02-11T13:08:03.530Z,3.78
2023-02-11T13:10:37.033Z,3.85
2023-02-11T13:13:21.917Z,4.28
2023-02-11T13:15:54.723Z,3.08
2023-02-11T13:18:44.796Z,2.92
2023-02-11T13:21:34.817Z,2.95
2023-02-11T13:24:18.679Z,3.05
2023-02-11T13:26:58.790Z,4.15
2023-02-11T13:29:43.634Z,3.97
2023-02-11T13:32:15.657Z,3.58
2023-02-11T13:34:59.527Z,3.53
2023-02-11T13:37:37.158Z,2.90
2023-02-11T13:40:21.075Z,3.47
2023-02-11T13:42:53.245Z,3.60
2023-02-11T13:45:32.867Z,3.22
2023-02-11T13:48:05.416Z,3.78
2023-02-11T13:50:40.082Z,2.92
2023-02-11T13:55:48.763Z,3.28
2023-02-11T13:58:39.712Z,3.03
2023-02-11T14:01:08.595Z,3.17
2023-02-11T14:03:57.233Z,2.97
2023-02-11T14:06:46.434Z,3.50
2023-02-11T14:09:40.823Z,3.22
2023-02-11T14:12:31.102Z,2.80
2023-02-11T14:15:05.372Z,3.00
2023-02-11T14:17:35.280Z,3.30
2023-02-11T14:20:25.898Z,3.30
2023-02-11T14:22:55.279Z,2.78
2023-02-11T14:25:25.984Z,3.20
2023-02-11T14:27:59.103Z,3.20
2023-02-11T14:30:42.668Z,2.88
2023-02-11T14:33:38.851Z,3.00
2023-02-11T14:36:43.498Z,3.13
2023-02-11T14:39:29.524Z,2.55
2023-02-11T14:41:57.928Z,3.10
2023-02-11T14:44:31.181Z,2.97
2023-02-11T14:47:00.154Z,2.97
2023-02-11T14:49:32.245Z,2.83
2023-02-11T14:52:07.235Z,3.58
2023-02-11T14:54:36.910Z,3.70
2023-02-11T14:57:16.882Z,2.55
2023-02-11T14:59:58.853Z,3.38
2023-02-11T15:02:35.378Z,2.83
2023-02-11T15:05:19.881Z,3.67
2023-02-11T15:07:51.572Z,3.78
2023-02-11T15:10:31.501Z,3.40
2023-02-11T15:13:02.011Z,3.60
2023-02-11T15:15:32.418Z,2.85
2023-02-11T15:18:04.488Z,3.58
2023-02-11T15:20:35.730Z,3.40
2023-02-11T15:23:09.200Z,3.20
2023-02-11T15:25:52.426Z,3.00
2023-02-11T15:28:26.055Z,2.97
2023-02-11T15:31:03.190Z,3.50
2023-02-11T15:33:32.177Z,3.53
2023-02-11T15:36:02.876Z,3.10
2023-02-11T15:38:31.535Z,3.40
2023-02-11T15:41:02.999Z,2.67
2023-02-11T15:43:45.585Z,3.20
2023-02-11T15:46:17.935Z,3.20
2023-02-11T15:48:50.389Z,3.85
2023-02-11T15:51:25.113Z,3.42
2023-02-11T15:53:58.362Z,3.33
2023-02-11T15:56:34.366Z,3.17
2023-02-11T15:59:16.795Z,3.35
2023-02-11T16:01:46.626Z,3.50
2023-02-11T16:04:20.532Z,3.55
2023-02-11T16:06:48.913Z,2.83
2023-02-11T16:09:32.539Z,3.22
2023-02-11T16:12:05.203Z,2.97
2023-02-11T16:14:39.076Z,3.47
2023-02-11T16:17:10.806Z,3.60
2023-02-11T16:19:45.706Z,3.03
2023-02-11T16:22:19.981Z,2.25
2023-02-11T16:24:50.924Z,2.88
2023-02-11T16:27:24.687Z,2.45
2023-02-11T16:29:53.224Z,2.93
2023-02-11T16:32:24.514Z,2.90
2023-02-11T16:34:55.287Z,3.38
2023-02-11T16:37:23.029Z,2.85
2023-02-11T16:39:50.837Z,2.30
2023-02-11T16:42:18.536Z,4.07
2023-02-11T16:44:47.586Z,3.35
2023-02-11T16:47:24.417Z,3.50
2023-02-11T16:49:52.670Z,2.97
2023-02-11T16:52:22.896Z,2.95
2023-02-11T16:54:51.126Z,2.70
2023-02-11T16:57:21.939Z,2.78
2023-02-11T16:59:51.504Z,3.65
2023-02-11T17:02:24.950Z,3.38
2023-02-11T17:04:54.466Z,3.47
2023-02-11T17:07:22.965Z,2.92
2023-02-11T17:09:51.631Z,3.17
2023-02-11T17:12:20.080Z,3.20
2023-02-11T17:14:47.946Z,2.35
2023-02-11T17:17:17.434Z,2.70
2023-02-11T17:19:47.659Z,2.95
2023-02-11T17:22:15.454Z,2.75
2023-02-11T17:24:43.164Z,3.05
2023-02-11T17:27:12.455Z,2.35
2023-02-11T17:29:40.201Z,2.60
2023-02-11T17:32:08.056Z,2.88
2023-02-11T17:34:37.182Z,3.05
2023-02-11T17:37:09.020Z,3.10
2023-02-11T17:39:36.875Z,3.33
2023-02-11T17:42:05.861Z,2.40
2023-02-11T17:44:33.961Z,3.10
2023-02-11T17:47:01.804Z,2.97
2023-02-11T17:49:29.567Z,2.72
2023-02-11T17:51:58.730Z,2.97
2023-02-11T17:54:26.532Z,3.58
2023-02-11T17:56:57.142Z,3.15
2023-02-11T17:59:26.475Z,2.85
2023-02-11T18:01:54.456Z,2.30
2023-02-11T18:04:22.252Z,3.33
2023-02-11T18:06:50.375Z,2.53
2023-02-11T18:09:19.428Z,3.58
2023-02-11T18:11:48.401Z,1.90
2023-02-11T18:14:16.184Z,2.35
2023-02-11T18:16:45.077Z,3.05
2023-02-11T18:19:13.985Z,3.03
2023-02-11T18:21:41.717Z,2.05
2023-02-11T18:24:09.539Z,2.63
2023-02-11T18:26:38.767Z,2.47
2023-02-11T18:29:07.802Z,2.63
2023-02-11T18:31:36.613Z,2.85
2023-02-11T18:34:05.825Z,2.83
2023-02-11T18:36:35.106Z,2.70
2023-02-11T18:39:03.285Z,2.80
2023-02-11T18:41:31.024Z,3.67
2023-02-11T18:44:02.667Z,2.83
2023-02-11T18:46:31.172Z,3.83
2023-02-11T18:48:58.926Z,3.35
2023-02-11T18:51:27.202Z,3.08
2023-02-11T18:53:55.516Z,2.65
2023-02-11T18:56:27.600Z,2.88
2023-02-11T18:58:56.453Z,3.20
2023-02-11T19:01:27.784Z,3.08
2023-02-11T19:03:58.275Z,3.30
2023-02-11T19:06:29.874Z,3.42
2023-02-11T19:09:00.782Z,3.08
2023-02-11T19:11:43.897Z,3.17
2023-02-11T19:14:12.595Z,3.33
2023-02-11T19:16:44.909Z,3.42
2023-02-11T19:19:14.162Z,3.25
2023-02-11T19:21:44.591Z,3.65
2023-02-11T19:24:15.409Z,2.70
2023-02-11T19:26:43.919Z,3.70
2023-02-11T19:29:11.938Z,2.90
2023-02-11T19:31:41.696Z,3.88
2023-02-11T19:34:11.079Z,3.22
2023-02-11T19:36:39.053Z,3.53
2023-02-11T19:39:07.424Z,3.72
2023-02-11T19:41:35.630Z,3.70
2023-02-11T19:44:05.077Z,3.45
2023-02-11T19:46:36.167Z,4.68
2023-02-11T19:49:06.218Z,3.63
2023-02-11T19:51:35.616Z,2.88
2023-02-11T19:54:03.310Z,2.92
2023-02-11T19:56:31.096Z,3.50
2023-02-11T19:58:59.234Z,2.72
2023-02-11T20:01:27.349Z,3.17
2023-02-11T20:03:57.164Z,2.95
2023-02-11T20:06:29.919Z,2.13
2023-02-11T20:09:00.778Z,3.13
2023-02-11T20:11:31.515Z,2.72
2023-02-11T20:13:59.921Z,3.13
2023-02-11T20:16:46.420Z,2.80
2023-02-11T20:19:17.670Z,2.88
2023-02-11T20:21:49.799Z,3.83
2023-02-11T20:24:20.156Z,2.25
2023-02-11T20:26:48.830Z,2.22
2023-02-11T20:29:18.109Z,3.22
2023-02-11T20:31:46.388Z,2.92
2023-02-11T20:34:14.237Z,4.07
2023-02-11T20:36:42.230Z,3.58
2023-02-11T20:39:16.960Z,2.53
2023-02-11T20:41:45.822Z,2.58
2023-02-11T20:44:14.142Z,3.55
2023-02-11T20:46:45.882Z,2.90
2023-02-11T20:49:15.572Z,2.78
2023-02-11T20:51:44.110Z,2.22
2023-02-11T20:54:15.965Z,1.92
2023-02-11T20:56:46.774Z,3.20
2023-02-11T20:59:16.497Z,2.78
2023-02-11T21:01:47.937Z,2.80
2023-02-11T21:04:19.284Z,2.20
2023-02-11T21:06:50.656Z,1.95
2023-02-11T21:09:22.726Z,2.15
2023-02-11T21:11:52.170Z,3.17
2023-02-11T21:14:22.334Z,3.00
2023-02-11T21:16:50.965Z,3.70
2023-02-11T21:19:19.318Z,2.42
2023-02-11T21:21:47.066Z,2.13
2023-02-11T21:24:15.483Z,2.50
2023-02-11T21:26:44.574Z,3.20
2023-02-11T21:29:12.691Z,2.92
2023-02-11T21:31:41.097Z,2.00
2023-02-11T21:34:09.406Z,2.45
2023-02-11T21:36:37.062Z,2.47
2023-02-11T21:39:05.948Z,2.65
2023-02-11T21:41:34.727Z,2.83
2023-02-11T21:44:03.874Z,2.22
2023-02-11T21:46:32.373Z,2.58
2023-02-11T21:49:00.313Z,2.97
2023-02-11T21:51:28.171Z,1.88
2023-02-11T21:53:57.819Z,2.35
2023-02-11T21:56:27.902Z,2.28
2023-02-11T21:58:57.669Z,3.63
2023-02-11T22:01:29.286Z,3.65
2023-02-11T22:03:57.736Z,2.50
2023-02-11T22:06:30.498Z,2.53
2023-02-11T22:08:59.269Z,2.67
2023-02-11T22:11:26.986Z,2.45
2023-02-11T22:13:56.253Z,2.40
2023-02-11T22:16:26.019Z,3.08
2023-02-11T22:18:54.070Z,3.03
2023-02-11T22:21:23.851Z,2.70
2023-02-11T22:23:52.622Z,2.72
2023-02-11T22:26:22.905Z,2.90
2023-02-11T22:28:52.766Z,2.80
2023-02-11T22:31:23.882Z,2.90
2023-02-11T22:33:53.278Z,3.08
2023-02-11T22:36:23.674Z,2.78
2023-02-11T22:38:51.724Z,2.42
2023-02-11T22:41:21.122Z,2.22
2023-02-11T22:43:49.574Z,2.08
2023-02-11T22:46:20.456Z,3.25
2023-02-11T22:48:49.576Z,2.92
2023-02-11T22:51:21.928Z,3.00
2023-02-11T22:53:51.993Z,4.15
2023-02-11T22:56:20.458Z,3.42
2023-02-11T22:58:48.820Z,3.55
2023-02-11T23:01:17.521Z,3.17
2023-02-11T23:03:45.974Z,1.52
2023-02-11T23:06:13.999Z,2.95
2023-02-11T23:08:43.789Z,3.63
2023-02-11T23:11:15.746Z,2.55
2023-02-11T23:13:45.391Z,3.00
2023-02-11T23:16:16.826Z,2.83
2023-02-11T23:18:47.182Z,3.13
2023-02-11T23:21:18.696Z,4.15
2023-02-11T23:23:48.730Z,2.92
2023-02-11T23:26:19.047Z,2.78
2023-02-11T23:28:48.264Z,3.08
2023-02-11T23:31:19.809Z,3.28
2023-02-11T23:33:48.515Z,3.60
2023-02-11T23:36:18.399Z,2.63
2023-02-11T23:38:48.180Z,2.15
2023-02-11T23:41:17.033Z,2.90
2023-02-11T23:43:45.354Z,2.35
2023-02-11T23:46:13.141Z,2.83
2023-02-11T23:48:41.203Z,2.80
2023-02-11T23:51:10.336Z,3.42
2023-02-11T23:53:38.140Z,2.63
2023-02-11T23:56:10.092Z,2.83
2023-02-11T23:58:38.128Z,1.95
